sensor_id;sensor_type;location;lat;lon;timestamp;temperature;humidity
5476;DHT22;2760;50.000;9.194;2023-07-31T00:01:19;18.80;99.90
5476;DHT22;2760;50.000;9.194;2023-07-31T00:03:48;18.80;99.90
5476;DHT22;2760;50.000;9.194;2023-07-31T00:06:15;18.70;99.90
5476;DHT22;2760;50.000;9.194;2023-07-31T00:08:42;18.80;99.90
5476;DHT22;2760;50.000;9.194;2023-07-31T00:11:09;18.70;99.90
5476;DHT22;2760;50.000;9.194;2023-07-31T00:13:36;18.90;99.90
5476;DHT22;2760;50.000;9.194;2023-07-31T00:16:03;18.90;99.90
5476;DHT22;2760;50.000;9.194;2023-07-31T00:20:59;19.20;99.90
5476;DHT22;2760;50.000;9.194;2023-07-31T00:23:26;19.30;99.90
5476;DHT22;2760;50.000;9.194;2023-07-31T00:25:53;19.40;99.90
5476;DHT22;2760;50.000;9.194;2023-07-31T00:28:20;19.40;99.90
5476;DHT22;2760;50.000;9.194;2023-07-31T00:30:47;19.60;99.90
5476;DHT22;2760;50.000;9.194;2023-07-31T00:33:14;19.80;99.90
5476;DHT22;2760;50.000;9.194;2023-07-31T00:35:41;19.60;99.90
5476;DHT22;2760;50.000;9.194;2023-07-31T00:38:09;19.80;99.90
5476;DHT22;2760;50.000;9.194;2023-07-31T00:40:36;19.80;99.90
5476;DHT22;2760;50.000;9.194;2023-07-31T00:43:04;19.80;99.90
5476;DHT22;2760;50.000;9.194;2023-07-31T00:45:31;19.70;99.90
5476;DHT22;2760;50.000;9.194;2023-07-31T00:47:59;19.80;99.90
5476;DHT22;2760;50.000;9.194;2023-07-31T00:50:27;19.80;99.90
5476;DHT22;2760;50.000;9.194;2023-07-31T00:52:54;19.80;99.90
5476;DHT22;2760;50.000;9.194;2023-07-31T00:55:23;19.80;99.90
5476;DHT22;2760;50.000;9.194;2023-07-31T00:57:51;19.90;99.90
5476;DHT22;2760;50.000;9.194;2023-07-31T01:00:21;20.00;99.90
5476;DHT22;2760;50.000;9.194;2023-07-31T01:02:48;20.00;99.90
5476;DHT22;2760;50.000;9.194;2023-07-31T01:07:49;20.00;99.90
5476;DHT22;2760;50.000;9.194;2023-07-31T01:10:23;20.10;99.90
5476;DHT22;2760;50.000;9.194;2023-07-31T01:12:53;20.00;99.90
5476;DHT22;2760;50.000;9.194;2023-07-31T01:15:21;20.00;99.90
5476;DHT22;2760;50.000;9.194;2023-07-31T01:17:48;20.00;99.90
5476;DHT22;2760;50.000;9.194;2023-07-31T01:20:18;19.90;99.90
5476;DHT22;2760;50.000;9.194;2023-07-31T01:23:22;19.90;99.90
5476;DHT22;2760;50.000;9.194;2023-07-31T01:26:03;20.00;99.90
5476;DHT22;2760;50.000;9.194;2023-07-31T01:28:40;20.00;99.90
5476;DHT22;2760;50.000;9.194;2023-07-31T01:31:12;19.90;99.90
5476;DHT22;2760;50.000;9.194;2023-07-31T01:33:40;19.90;99.90
5476;DHT22;2760;50.000;9.194;2023-07-31T01:36:07;17.70;99.80
5476;DHT22;2760;50.000;9.194;2023-07-31T01:38:35;19.90;99.90
5476;DHT22;2760;50.000;9.194;2023-07-31T01:41:03;19.90;99.90
5476;DHT22;2760;50.000;9.194;2023-07-31T01:43:30;19.90;99.90
5476;DHT22;2760;50.000;9.194;2023-07-31T01:45:57;19.90;99.90
5476;DHT22;2760;50.000;9.194;2023-07-31T01:48:24;19.90;99.90
5476;DHT22;2760;50.000;9.194;2023-07-31T01:50:51;20.00;99.90
5476;DHT22;2760;50.000;9.194;2023-07-31T01:53:18;20.00;99.90
5476;DHT22;2760;50.000;9.194;2023-07-31T01:55:45;20.10;99.90
5476;DHT22;2760;50.000;9.194;2023-07-31T01:58:14;19.90;99.90
5476;DHT22;2760;50.000;9.194;2023-07-31T02:00:41;20.00;99.90
5476;DHT22;2760;50.000;9.194;2023-07-31T02:03:06;19.90;99.90
5476;DHT22;2760;50.000;9.194;2023-07-31T02:05:33;19.90;99.90
5476;DHT22;2760;50.000;9.194;2023-07-31T02:08:00;20.00;99.90
5476;DHT22;2760;50.000;9.194;2023-07-31T02:10:28;20.00;99.90
5476;DHT22;2760;50.000;9.194;2023-07-31T02:12:55;20.00;99.90
5476;DHT22;2760;50.000;9.194;2023-07-31T02:15:24;20.00;99.90
5476;DHT22;2760;50.000;9.194;2023-07-31T02:17:51;20.00;99.90
5476;DHT22;2760;50.000;9.194;2023-07-31T02:20:18;20.00;99.90
5476;DHT22;2760;50.000;9.194;2023-07-31T02:22:45;19.90;99.90
5476;DHT22;2760;50.000;9.194;2023-07-31T02:25:13;19.90;99.90
5476;DHT22;2760;50.000;9.194;2023-07-31T02:27:40;20.00;99.90
5476;DHT22;2760;50.000;9.194;2023-07-31T02:30:08;20.00;99.90
5476;DHT22;2760;50.000;9.194;2023-07-31T02:32:36;20.00;99.90
5476;DHT22;2760;50.000;9.194;2023-07-31T02:35:04;20.10;99.90
5476;DHT22;2760;50.000;9.194;2023-07-31T02:37:31;19.90;99.90
5476;DHT22;2760;50.000;9.194;2023-07-31T02:39:58;19.90;99.90
5476;DHT22;2760;50.000;9.194;2023-07-31T02:42:28;19.80;99.90
5476;DHT22;2760;50.000;9.194;2023-07-31T02:44:54;19.90;99.90
5476;DHT22;2760;50.000;9.194;2023-07-31T02:47:22;19.90;99.90
5476;DHT22;2760;50.000;9.194;2023-07-31T02:49:50;19.90;99.90
5476;DHT22;2760;50.000;9.194;2023-07-31T02:52:17;19.90;99.90
5476;DHT22;2760;50.000;9.194;2023-07-31T02:54:45;19.90;99.90
5476;DHT22;2760;50.000;9.194;2023-07-31T02:57:12;19.80;99.90
5476;DHT22;2760;50.000;9.194;2023-07-31T02:59:39;19.80;99.90
5476;DHT22;2760;50.000;9.194;2023-07-31T03:02:06;19.80;99.90
5476;DHT22;2760;50.000;9.194;2023-07-31T03:04:33;19.90;99.90
5476;DHT22;2760;50.000;9.194;2023-07-31T03:07:02;19.70;99.90
5476;DHT22;2760;50.000;9.194;2023-07-31T03:09:29;19.70;99.90
5476;DHT22;2760;50.000;9.194;2023-07-31T03:11:56;19.90;99.90
5476;DHT22;2760;50.000;9.194;2023-07-31T03:14:23;19.80;99.90
5476;DHT22;2760;50.000;9.194;2023-07-31T03:16:52;19.90;99.90
5476;DHT22;2760;50.000;9.194;2023-07-31T03:19:19;19.80;99.90
5476;DHT22;2760;50.000;9.194;2023-07-31T03:21:46;19.90;99.90
5476;DHT22;2760;50.000;9.194;2023-07-31T03:24:14;19.90;99.90
5476;DHT22;2760;50.000;9.194;2023-07-31T03:26:41;19.80;99.90
5476;DHT22;2760;50.000;9.194;2023-07-31T03:29:09;19.70;99.90
5476;DHT22;2760;50.000;9.194;2023-07-31T03:31:36;19.70;99.90
5476;DHT22;2760;50.000;9.194;2023-07-31T03:34:03;19.80;99.90
5476;DHT22;2760;50.000;9.194;2023-07-31T03:36:30;19.70;99.90
5476;DHT22;2760;50.000;9.194;2023-07-31T03:38:57;19.80;99.90
5476;DHT22;2760;50.000;9.194;2023-07-31T03:41:25;19.80;99.90
5476;DHT22;2760;50.000;9.194;2023-07-31T03:43:53;19.70;99.90
5476;DHT22;2760;50.000;9.194;2023-07-31T03:46:21;19.80;99.90
5476;DHT22;2760;50.000;9.194;2023-07-31T03:48:49;19.90;99.90
5476;DHT22;2760;50.000;9.194;2023-07-31T03:51:16;19.70;99.90
5476;DHT22;2760;50.000;9.194;2023-07-31T03:53:43;19.70;99.90
5476;DHT22;2760;50.000;9.194;2023-07-31T03:56:12;19.60;99.90
5476;DHT22;2760;50.000;9.194;2023-07-31T03:58:40;19.50;99.90
5476;DHT22;2760;50.000;9.194;2023-07-31T04:01:07;19.40;99.90
5476;DHT22;2760;50.000;9.194;2023-07-31T04:03:34;19.40;99.90
5476;DHT22;2760;50.000;9.194;2023-07-31T04:06:01;19.30;99.90
5476;DHT22;2760;50.000;9.194;2023-07-31T04:08:28;19.20;99.90
5476;DHT22;2760;50.000;9.194;2023-07-31T04:10:55;19.10;99.90
5476;DHT22;2760;50.000;9.194;2023-07-31T04:13:22;19.20;99.90
5476;DHT22;2760;50.000;9.194;2023-07-31T04:15:50;19.10;99.90
5476;DHT22;2760;50.000;9.194;2023-07-31T04:18:17;19.10;99.90
5476;DHT22;2760;50.000;9.194;2023-07-31T04:20:44;18.60;99.90
5476;DHT22;2760;50.000;9.194;2023-07-31T04:23:12;19.00;99.90
5476;DHT22;2760;50.000;9.194;2023-07-31T04:25:38;19.20;99.90
5476;DHT22;2760;50.000;9.194;2023-07-31T04:30:33;19.10;99.90
5476;DHT22;2760;50.000;9.194;2023-07-31T04:33:01;19.00;99.90
5476;DHT22;2760;50.000;9.194;2023-07-31T04:35:28;19.00;99.90
5476;DHT22;2760;50.000;9.194;2023-07-31T04:38:12;19.10;99.90
5476;DHT22;2760;50.000;9.194;2023-07-31T04:40:39;19.00;99.90
5476;DHT22;2760;50.000;9.194;2023-07-31T04:43:06;19.20;99.90
5476;DHT22;2760;50.000;9.194;2023-07-31T04:46:01;19.00;99.90
5476;DHT22;2760;50.000;9.194;2023-07-31T04:48:30;19.00;99.90
5476;DHT22;2760;50.000;9.194;2023-07-31T04:50:58;19.10;99.90
5476;DHT22;2760;50.000;9.194;2023-07-31T04:53:26;19.20;99.90
5476;DHT22;2760;50.000;9.194;2023-07-31T04:55:54;19.20;99.90
5476;DHT22;2760;50.000;9.194;2023-07-31T04:58:24;19.20;99.90
5476;DHT22;2760;50.000;9.194;2023-07-31T05:00:52;18.60;99.90
5476;DHT22;2760;50.000;9.194;2023-07-31T05:03:19;19.20;99.90
5476;DHT22;2760;50.000;9.194;2023-07-31T05:05:47;19.20;99.90
5476;DHT22;2760;50.000;9.194;2023-07-31T05:08:15;19.20;99.90
5476;DHT22;2760;50.000;9.194;2023-07-31T05:10:43;19.10;99.90
5476;DHT22;2760;50.000;9.194;2023-07-31T05:13:10;19.20;99.90
5476;DHT22;2760;50.000;9.194;2023-07-31T05:15:37;19.40;99.90
5476;DHT22;2760;50.000;9.194;2023-07-31T05:18:04;19.30;99.90
5476;DHT22;2760;50.000;9.194;2023-07-31T05:20:31;19.30;99.90
5476;DHT22;2760;50.000;9.194;2023-07-31T05:22:59;19.20;99.90
5476;DHT22;2760;50.000;9.194;2023-07-31T05:25:28;19.40;99.90
5476;DHT22;2760;50.000;9.194;2023-07-31T05:30:23;19.40;99.90
5476;DHT22;2760;50.000;9.194;2023-07-31T05:32:52;19.40;99.90
5476;DHT22;2760;50.000;9.194;2023-07-31T05:35:19;19.30;99.90
5476;DHT22;2760;50.000;9.194;2023-07-31T05:37:46;19.30;99.90
5476;DHT22;2760;50.000;9.194;2023-07-31T05:40:15;19.40;99.90
5476;DHT22;2760;50.000;9.194;2023-07-31T05:42:43;19.40;99.90
5476;DHT22;2760;50.000;9.194;2023-07-31T05:45:12;19.50;99.90
5476;DHT22;2760;50.000;9.194;2023-07-31T05:47:40;19.40;99.90
5476;DHT22;2760;50.000;9.194;2023-07-31T05:50:07;19.40;99.90
5476;DHT22;2760;50.000;9.194;2023-07-31T05:52:35;19.50;99.90
5476;DHT22;2760;50.000;9.194;2023-07-31T05:55:02;19.40;99.90
5476;DHT22;2760;50.000;9.194;2023-07-31T05:57:31;19.40;99.90
5476;DHT22;2760;50.000;9.194;2023-07-31T05:59:58;19.50;99.90
5476;DHT22;2760;50.000;9.194;2023-07-31T06:02:25;19.50;99.90
5476;DHT22;2760;50.000;9.194;2023-07-31T06:04:52;19.50;99.90
5476;DHT22;2760;50.000;9.194;2023-07-31T06:07:22;19.40;99.90
5476;DHT22;2760;50.000;9.194;2023-07-31T06:09:49;19.40;99.90
5476;DHT22;2760;50.000;9.194;2023-07-31T06:12:17;19.40;99.90
5476;DHT22;2760;50.000;9.194;2023-07-31T06:14:46;19.60;99.90
5476;DHT22;2760;50.000;9.194;2023-07-31T06:17:13;19.50;99.90
5476;DHT22;2760;50.000;9.194;2023-07-31T06:19:40;19.50;99.90
5476;DHT22;2760;50.000;9.194;2023-07-31T06:22:09;19.40;99.90
5476;DHT22;2760;50.000;9.194;2023-07-31T06:24:36;18.50;99.90
5476;DHT22;2760;50.000;9.194;2023-07-31T06:27:03;19.50;99.90
5476;DHT22;2760;50.000;9.194;2023-07-31T06:29:31;19.50;99.90
5476;DHT22;2760;50.000;9.194;2023-07-31T06:32:01;19.50;99.90
5476;DHT22;2760;50.000;9.194;2023-07-31T06:34:29;19.50;99.90
5476;DHT22;2760;50.000;9.194;2023-07-31T06:36:56;19.40;99.90
5476;DHT22;2760;50.000;9.194;2023-07-31T06:39:23;19.60;99.90
5476;DHT22;2760;50.000;9.194;2023-07-31T06:41:50;19.40;99.90
5476;DHT22;2760;50.000;9.194;2023-07-31T06:44:17;19.70;99.90
5476;DHT22;2760;50.000;9.194;2023-07-31T06:46:44;19.60;99.90
5476;DHT22;2760;50.000;9.194;2023-07-31T06:49:13;19.80;99.90
5476;DHT22;2760;50.000;9.194;2023-07-31T06:51:44;20.00;99.90
5476;DHT22;2760;50.000;9.194;2023-07-31T06:54:11;20.00;99.90
5476;DHT22;2760;50.000;9.194;2023-07-31T06:59:05;20.10;99.90
5476;DHT22;2760;50.000;9.194;2023-07-31T07:01:33;20.10;99.90
5476;DHT22;2760;50.000;9.194;2023-07-31T07:04:02;20.00;99.90
5476;DHT22;2760;50.000;9.194;2023-07-31T07:06:31;19.90;99.90
5476;DHT22;2760;50.000;9.194;2023-07-31T07:08:59;19.90;99.90
5476;DHT22;2760;50.000;9.194;2023-07-31T07:13:53;20.00;99.90
5476;DHT22;2760;50.000;9.194;2023-07-31T07:16:20;20.00;99.90
5476;DHT22;2760;50.000;9.194;2023-07-31T07:18:47;20.10;99.90
5476;DHT22;2760;50.000;9.194;2023-07-31T07:21:15;20.20;99.90
5476;DHT22;2760;50.000;9.194;2023-07-31T07:23:45;20.30;99.90
5476;DHT22;2760;50.000;9.194;2023-07-31T07:26:16;20.30;99.90
5476;DHT22;2760;50.000;9.194;2023-07-31T07:28:43;20.30;99.90
5476;DHT22;2760;50.000;9.194;2023-07-31T07:31:10;20.30;99.90
5476;DHT22;2760;50.000;9.194;2023-07-31T07:33:38;20.50;99.90
5476;DHT22;2760;50.000;9.194;2023-07-31T07:36:05;20.40;99.90
5476;DHT22;2760;50.000;9.194;2023-07-31T07:41:07;20.40;99.90
5476;DHT22;2760;50.000;9.194;2023-07-31T07:43:36;20.40;99.90
5476;DHT22;2760;50.000;9.194;2023-07-31T07:46:03;20.90;99.90
5476;DHT22;2760;50.000;9.194;2023-07-31T07:48:31;20.40;99.90
5476;DHT22;2760;50.000;9.194;2023-07-31T07:50:58;20.40;99.90
5476;DHT22;2760;50.000;9.194;2023-07-31T07:53:28;20.40;99.90
5476;DHT22;2760;50.000;9.194;2023-07-31T07:55:55;20.50;99.90
5476;DHT22;2760;50.000;9.194;2023-07-31T07:58:31;20.60;99.90
5476;DHT22;2760;50.000;9.194;2023-07-31T08:01:00;20.50;99.90
5476;DHT22;2760;50.000;9.194;2023-07-31T08:03:28;20.60;99.90
5476;DHT22;2760;50.000;9.194;2023-07-31T08:05:58;20.70;99.90
5476;DHT22;2760;50.000;9.194;2023-07-31T08:08:27;20.70;99.90
5476;DHT22;2760;50.000;9.194;2023-07-31T08:10:56;20.80;99.90
5476;DHT22;2760;50.000;9.194;2023-07-31T08:13:25;23.60;99.90
5476;DHT22;2760;50.000;9.194;2023-07-31T08:15:55;20.80;99.90
5476;DHT22;2760;50.000;9.194;2023-07-31T08:18:23;20.70;99.90
5476;DHT22;2760;50.000;9.194;2023-07-31T08:20:51;20.70;99.90
5476;DHT22;2760;50.000;9.194;2023-07-31T08:23:32;20.80;99.90
5476;DHT22;2760;50.000;9.194;2023-07-31T08:25:59;21.00;99.90
5476;DHT22;2760;50.000;9.194;2023-07-31T08:28:28;21.00;99.90
5476;DHT22;2760;50.000;9.194;2023-07-31T08:30:56;21.10;99.90
5476;DHT22;2760;50.000;9.194;2023-07-31T08:33:23;21.10;99.90
5476;DHT22;2760;50.000;9.194;2023-07-31T08:35:51;21.10;99.90
5476;DHT22;2760;50.000;9.194;2023-07-31T08:40:46;21.20;99.90
5476;DHT22;2760;50.000;9.194;2023-07-31T08:43:13;21.20;99.90
5476;DHT22;2760;50.000;9.194;2023-07-31T08:45:43;21.30;99.90
5476;DHT22;2760;50.000;9.194;2023-07-31T08:48:12;21.20;99.90
5476;DHT22;2760;50.000;9.194;2023-07-31T08:50:39;21.00;99.90
5476;DHT22;2760;50.000;9.194;2023-07-31T08:53:06;21.10;99.90
5476;DHT22;2760;50.000;9.194;2023-07-31T08:55:35;21.20;99.90
5476;DHT22;2760;50.000;9.194;2023-07-31T08:58:03;21.40;99.90
5476;DHT22;2760;50.000;9.194;2023-07-31T09:00:32;21.50;99.90
5476;DHT22;2760;50.000;9.194;2023-07-31T09:03:03;21.80;99.90
5476;DHT22;2760;50.000;9.194;2023-07-31T09:05:31;21.60;99.90
5476;DHT22;2760;50.000;9.194;2023-07-31T09:08:00;21.50;99.90
5476;DHT22;2760;50.000;9.194;2023-07-31T09:10:28;21.30;99.90
5476;DHT22;2760;50.000;9.194;2023-07-31T09:12:58;21.70;99.90
5476;DHT22;2760;50.000;9.194;2023-07-31T09:15:25;22.50;99.90
5476;DHT22;2760;50.000;9.194;2023-07-31T09:18:01;22.50;99.90
5476;DHT22;2760;50.000;9.194;2023-07-31T09:20:28;22.40;99.90
5476;DHT22;2760;50.000;9.194;2023-07-31T09:23:05;22.30;99.90
5476;DHT22;2760;50.000;9.194;2023-07-31T09:25:34;22.30;99.90
5476;DHT22;2760;50.000;9.194;2023-07-31T09:28:06;22.10;99.90
5476;DHT22;2760;50.000;9.194;2023-07-31T09:30:46;22.10;99.90
5476;DHT22;2760;50.000;9.194;2023-07-31T09:33:15;22.20;99.90
5476;DHT22;2760;50.000;9.194;2023-07-31T09:35:43;22.20;99.90
5476;DHT22;2760;50.000;9.194;2023-07-31T09:38:12;19.70;99.90
5476;DHT22;2760;50.000;9.194;2023-07-31T09:40:42;22.20;99.90
5476;DHT22;2760;50.000;9.194;2023-07-31T09:43:10;22.20;99.90
5476;DHT22;2760;50.000;9.194;2023-07-31T09:45:38;22.30;99.90
5476;DHT22;2760;50.000;9.194;2023-07-31T09:48:08;22.30;99.90
5476;DHT22;2760;50.000;9.194;2023-07-31T09:50:38;22.40;99.90
5476;DHT22;2760;50.000;9.194;2023-07-31T09:53:08;22.40;99.90
5476;DHT22;2760;50.000;9.194;2023-07-31T09:55:36;22.50;99.90
5476;DHT22;2760;50.000;9.194;2023-07-31T09:58:05;22.50;99.90
5476;DHT22;2760;50.000;9.194;2023-07-31T10:00:32;24.20;99.90
5476;DHT22;2760;50.000;9.194;2023-07-31T10:03:00;22.80;99.90
5476;DHT22;2760;50.000;9.194;2023-07-31T10:05:32;22.60;99.90
5476;DHT22;2760;50.000;9.194;2023-07-31T10:08:03;22.90;99.40
5476;DHT22;2760;50.000;9.194;2023-07-31T10:10:33;22.90;99.90
5476;DHT22;2760;50.000;9.194;2023-07-31T10:13:13;22.70;99.90
5476;DHT22;2760;50.000;9.194;2023-07-31T10:15:41;22.60;99.90
5476;DHT22;2760;50.000;9.194;2023-07-31T10:18:09;22.60;99.90
5476;DHT22;2760;50.000;9.194;2023-07-31T10:20:37;22.50;99.90
5476;DHT22;2760;50.000;9.194;2023-07-31T10:23:06;22.60;99.90
5476;DHT22;2760;50.000;9.194;2023-07-31T10:25:38;22.70;99.90
5476;DHT22;2760;50.000;9.194;2023-07-31T10:28:05;22.70;99.90
5476;DHT22;2760;50.000;9.194;2023-07-31T10:30:35;22.80;99.70
5476;DHT22;2760;50.000;9.194;2023-07-31T10:33:05;22.80;99.30
5476;DHT22;2760;50.000;9.194;2023-07-31T10:35:33;22.70;99.70
5476;DHT22;2760;50.000;9.194;2023-07-31T10:38:11;22.80;99.90
5476;DHT22;2760;50.000;9.194;2023-07-31T10:40:38;22.60;99.90
5476;DHT22;2760;50.000;9.194;2023-07-31T10:43:06;22.70;99.90
5476;DHT22;2760;50.000;9.194;2023-07-31T10:45:35;22.80;99.90
5476;DHT22;2760;50.000;9.194;2023-07-31T10:48:04;22.80;99.80
5476;DHT22;2760;50.000;9.194;2023-07-31T10:50:32;22.80;99.60
5476;DHT22;2760;50.000;9.194;2023-07-31T10:52:59;22.80;99.90
5476;DHT22;2760;50.000;9.194;2023-07-31T10:55:31;23.10;99.40
5476;DHT22;2760;50.000;9.194;2023-07-31T10:58:05;22.90;99.40
5476;DHT22;2760;50.000;9.194;2023-07-31T11:00:33;22.80;99.90
5476;DHT22;2760;50.000;9.194;2023-07-31T11:03:03;23.30;99.90
5476;DHT22;2760;50.000;9.194;2023-07-31T11:05:44;23.30;99.30
5476;DHT22;2760;50.000;9.194;2023-07-31T11:08:13;23.30;98.80
5476;DHT22;2760;50.000;9.194;2023-07-31T11:10:43;23.40;98.90
5476;DHT22;2760;50.000;9.194;2023-07-31T11:13:11;23.40;98.10
5476;DHT22;2760;50.000;9.194;2023-07-31T11:15:38;23.40;98.60
5476;DHT22;2760;50.000;9.194;2023-07-31T11:18:06;23.50;99.00
5476;DHT22;2760;50.000;9.194;2023-07-31T11:20:35;24.90;99.30
5476;DHT22;2760;50.000;9.194;2023-07-31T11:23:03;24.10;98.30
5476;DHT22;2760;50.000;9.194;2023-07-31T11:25:31;24.10;97.90
5476;DHT22;2760;50.000;9.194;2023-07-31T11:28:05;24.10;97.80
5476;DHT22;2760;50.000;9.194;2023-07-31T11:30:33;24.20;98.00
5476;DHT22;2760;50.000;9.194;2023-07-31T11:33:02;24.20;98.00
5476;DHT22;2760;50.000;9.194;2023-07-31T11:35:31;24.20;98.10
5476;DHT22;2760;50.000;9.194;2023-07-31T11:37:58;24.10;97.70
5476;DHT22;2760;50.000;9.194;2023-07-31T11:40:26;23.90;98.50
5476;DHT22;2760;50.000;9.194;2023-07-31T11:42:56;24.00;98.60
5476;DHT22;2760;50.000;9.194;2023-07-31T11:45:26;25.60;99.20
5476;DHT22;2760;50.000;9.194;2023-07-31T11:47:55;23.90;98.00
5476;DHT22;2760;50.000;9.194;2023-07-31T11:50:23;23.60;98.70
5476;DHT22;2760;50.000;9.194;2023-07-31T11:52:55;23.70;98.50
5476;DHT22;2760;50.000;9.194;2023-07-31T11:55:24;23.60;98.60
5476;DHT22;2760;50.000;9.194;2023-07-31T11:57:53;23.40;99.20
5476;DHT22;2760;50.000;9.194;2023-07-31T12:00:21;23.10;99.20
5476;DHT22;2760;50.000;9.194;2023-07-31T12:02:50;23.30;98.90
5476;DHT22;2760;50.000;9.194;2023-07-31T12:05:17;23.40;98.30
5476;DHT22;2760;50.000;9.194;2023-07-31T12:07:49;25.30;99.60
5476;DHT22;2760;50.000;9.194;2023-07-31T12:10:27;23.30;99.00
5476;DHT22;2760;50.000;9.194;2023-07-31T12:13:02;23.30;98.70
5476;DHT22;2760;50.000;9.194;2023-07-31T12:15:33;23.30;98.70
5476;DHT22;2760;50.000;9.194;2023-07-31T12:18:04;23.30;98.50
5476;DHT22;2760;50.000;9.194;2023-07-31T12:20:32;23.10;98.70
5476;DHT22;2760;50.000;9.194;2023-07-31T12:22:59;23.10;99.10
5476;DHT22;2760;50.000;9.194;2023-07-31T12:25:31;23.10;98.50
5476;DHT22;2760;50.000;9.194;2023-07-31T12:28:04;23.10;99.00
5476;DHT22;2760;50.000;9.194;2023-07-31T12:30:33;23.10;98.50
5476;DHT22;2760;50.000;9.194;2023-07-31T12:33:06;23.10;99.00
5476;DHT22;2760;50.000;9.194;2023-07-31T12:35:38;23.00;99.40
5476;DHT22;2760;50.000;9.194;2023-07-31T12:38:05;21.60;98.70
5476;DHT22;2760;50.000;9.194;2023-07-31T12:40:32;23.00;99.20
5476;DHT22;2760;50.000;9.194;2023-07-31T12:43:01;23.10;99.30
5476;DHT22;2760;50.000;9.194;2023-07-31T12:45:30;22.90;99.40
5476;DHT22;2760;50.000;9.194;2023-07-31T12:47:57;23.00;99.10
5476;DHT22;2760;50.000;9.194;2023-07-31T12:50:26;23.20;98.80
5476;DHT22;2760;50.000;9.194;2023-07-31T12:52:53;23.20;99.20
5476;DHT22;2760;50.000;9.194;2023-07-31T12:55:21;23.20;98.70
5476;DHT22;2760;50.000;9.194;2023-07-31T12:57:48;23.30;98.50
5476;DHT22;2760;50.000;9.194;2023-07-31T13:00:15;23.30;98.80
5476;DHT22;2760;50.000;9.194;2023-07-31T13:02:42;23.30;99.10
5476;DHT22;2760;50.000;9.194;2023-07-31T13:05:09;23.30;98.90
5476;DHT22;2760;50.000;9.194;2023-07-31T13:07:38;23.40;98.30
5476;DHT22;2760;50.000;9.194;2023-07-31T13:10:06;23.30;98.80
5476;DHT22;2760;50.000;9.194;2023-07-31T13:12:33;23.30;98.90
5476;DHT22;2760;50.000;9.194;2023-07-31T13:15:00;23.40;98.70
5476;DHT22;2760;50.000;9.194;2023-07-31T13:17:27;23.30;98.90
5476;DHT22;2760;50.000;9.194;2023-07-31T13:19:55;23.20;98.70
5476;DHT22;2760;50.000;9.194;2023-07-31T13:22:22;23.30;98.10
5476;DHT22;2760;50.000;9.194;2023-07-31T13:24:51;23.40;98.10
5476;DHT22;2760;50.000;9.194;2023-07-31T13:27:17;23.30;98.60
5476;DHT22;2760;50.000;9.194;2023-07-31T13:29:47;23.50;98.50
5476;DHT22;2760;50.000;9.194;2023-07-31T13:32:15;23.60;98.30
5476;DHT22;2760;50.000;9.194;2023-07-31T13:34:42;23.50;98.40
5476;DHT22;2760;50.000;9.194;2023-07-31T13:37:09;23.50;98.00
5476;DHT22;2760;50.000;9.194;2023-07-31T13:39:36;23.40;98.10
5476;DHT22;2760;50.000;9.194;2023-07-31T13:42:08;23.40;98.00
5476;DHT22;2760;50.000;9.194;2023-07-31T13:44:38;23.50;98.50
5476;DHT22;2760;50.000;9.194;2023-07-31T13:47:05;23.60;97.60
5476;DHT22;2760;50.000;9.194;2023-07-31T13:49:33;23.50;98.10
5476;DHT22;2760;50.000;9.194;2023-07-31T13:52:00;23.40;98.20
5476;DHT22;2760;50.000;9.194;2023-07-31T13:54:27;23.40;98.40
5476;DHT22;2760;50.000;9.194;2023-07-31T13:56:54;23.50;98.30
5476;DHT22;2760;50.000;9.194;2023-07-31T13:59:23;23.30;97.80
5476;DHT22;2760;50.000;9.194;2023-07-31T14:01:50;23.30;98.50
5476;DHT22;2760;50.000;9.194;2023-07-31T14:04:17;23.20;98.30
5476;DHT22;2760;50.000;9.194;2023-07-31T14:06:45;23.20;99.00
5476;DHT22;2760;50.000;9.194;2023-07-31T14:09:13;23.20;98.90
5476;DHT22;2760;50.000;9.194;2023-07-31T14:11:41;20.90;97.30
5476;DHT22;2760;50.000;9.194;2023-07-31T14:14:09;23.30;98.20
5476;DHT22;2760;50.000;9.194;2023-07-31T14:16:37;23.30;98.70
5476;DHT22;2760;50.000;9.194;2023-07-31T14:19:05;23.40;98.60
5476;DHT22;2760;50.000;9.194;2023-07-31T14:21:33;23.40;98.40
5476;DHT22;2760;50.000;9.194;2023-07-31T14:24:00;23.50;98.30
5476;DHT22;2760;50.000;9.194;2023-07-31T14:26:41;22.40;97.80
5476;DHT22;2760;50.000;9.194;2023-07-31T14:29:09;23.20;98.70
5476;DHT22;2760;50.000;9.194;2023-07-31T14:31:37;23.20;98.50
5476;DHT22;2760;50.000;9.194;2023-07-31T14:34:04;23.20;98.70
5476;DHT22;2760;50.000;9.194;2023-07-31T14:36:32;23.30;98.80
5476;DHT22;2760;50.000;9.194;2023-07-31T14:38:59;23.40;98.10
5476;DHT22;2760;50.000;9.194;2023-07-31T14:41:26;23.40;98.50
5476;DHT22;2760;50.000;9.194;2023-07-31T14:43:53;23.40;99.00
5476;DHT22;2760;50.000;9.194;2023-07-31T14:46:20;23.30;98.80
5476;DHT22;2760;50.000;9.194;2023-07-31T14:48:48;23.40;99.10
5476;DHT22;2760;50.000;9.194;2023-07-31T14:51:16;23.50;98.60
5476;DHT22;2760;50.000;9.194;2023-07-31T14:53:45;23.40;99.20
5476;DHT22;2760;50.000;9.194;2023-07-31T14:56:18;23.40;98.60
5476;DHT22;2760;50.000;9.194;2023-07-31T14:58:45;22.40;98.40
5476;DHT22;2760;50.000;9.194;2023-07-31T15:01:12;23.30;98.70
5476;DHT22;2760;50.000;9.194;2023-07-31T15:03:42;23.40;98.80
5476;DHT22;2760;50.000;9.194;2023-07-31T15:06:10;23.30;98.90
5476;DHT22;2760;50.000;9.194;2023-07-31T15:08:38;23.00;98.80
5476;DHT22;2760;50.000;9.194;2023-07-31T15:11:07;23.20;98.70
5476;DHT22;2760;50.000;9.194;2023-07-31T15:13:34;23.10;99.00
5476;DHT22;2760;50.000;9.194;2023-07-31T15:16:01;23.20;99.30
5476;DHT22;2760;50.000;9.194;2023-07-31T15:18:28;23.20;99.10
5476;DHT22;2760;50.000;9.194;2023-07-31T15:20:55;23.20;99.40
5476;DHT22;2760;50.000;9.194;2023-07-31T15:23:24;23.10;99.30
5476;DHT22;2760;50.000;9.194;2023-07-31T15:25:52;23.10;99.30
5476;DHT22;2760;50.000;9.194;2023-07-31T15:28:19;21.80;99.00
5476;DHT22;2760;50.000;9.194;2023-07-31T15:30:46;23.10;99.80
5476;DHT22;2760;50.000;9.194;2023-07-31T15:33:14;23.00;99.80
5476;DHT22;2760;50.000;9.194;2023-07-31T15:35:42;23.00;99.80
5476;DHT22;2760;50.000;9.194;2023-07-31T15:38:09;23.00;99.80
5476;DHT22;2760;50.000;9.194;2023-07-31T15:40:38;22.90;99.90
5476;DHT22;2760;50.000;9.194;2023-07-31T15:43:06;23.00;99.90
5476;DHT22;2760;50.000;9.194;2023-07-31T15:45:36;23.00;99.90
5476;DHT22;2760;50.000;9.194;2023-07-31T15:48:05;22.90;99.70
5476;DHT22;2760;50.000;9.194;2023-07-31T15:50:36;20.90;99.00
5476;DHT22;2760;50.000;9.194;2023-07-31T15:53:03;21.00;99.50
5476;DHT22;2760;50.000;9.194;2023-07-31T15:55:30;22.90;99.90
5476;DHT22;2760;50.000;9.194;2023-07-31T15:57:58;22.80;99.90
5476;DHT22;2760;50.000;9.194;2023-07-31T16:00:26;22.80;99.90
5476;DHT22;2760;50.000;9.194;2023-07-31T16:02:53;22.70;99.90
5476;DHT22;2760;50.000;9.194;2023-07-31T16:05:21;22.80;99.90
5476;DHT22;2760;50.000;9.194;2023-07-31T16:07:48;22.60;99.90
5476;DHT22;2760;50.000;9.194;2023-07-31T16:10:16;22.60;99.90
5476;DHT22;2760;50.000;9.194;2023-07-31T16:12:43;22.70;99.90
5476;DHT22;2760;50.000;9.194;2023-07-31T16:15:11;20.80;99.60
5476;DHT22;2760;50.000;9.194;2023-07-31T16:17:41;22.70;99.90
5476;DHT22;2760;50.000;9.194;2023-07-31T16:20:11;22.60;99.90
5476;DHT22;2760;50.000;9.194;2023-07-31T16:22:38;22.50;99.90
5476;DHT22;2760;50.000;9.194;2023-07-31T16:25:06;22.50;99.90
5476;DHT22;2760;50.000;9.194;2023-07-31T16:27:34;22.40;99.90
5476;DHT22;2760;50.000;9.194;2023-07-31T16:30:01;22.50;99.90